Time;durP1;ratioP1;P1;durP2;ratioP2;P2;SDS_P1;SDS_P2;PMS_P1;PMS_P2;Temp;Humidity;BMP_temperature;BMP_pressure;BME280_temperature;BME280_humidity;BME280_pressure;Samples;Min_cycle;Max_cycle;Signal;HPM_P1;HPM_P2
2021/12/29 00:00:07;;;;;;;24.67;15.57;;;;;;;;;;5107185;28;20035;-79
2021/12/29 00:02:33;;;;;;;21.60;14.35;;;;;;;;;;5107396;27;20043;-74
2021/12/29 00:05:00;;;;;;;22.33;14.45;;;;;;;;;;5087747;28;20361;-74
2021/12/29 00:07:26;;;;;;;27.08;14.25;;;;;;;;;;5108748;28;20046;-74
2021/12/29 00:09:55;;;;;;;22.88;14.70;;;;;;;;;;5101971;27;20550;-74
2021/12/29 00:12:25;;;;;;;30.50;17.67;;;;;;;;;;5078218;28;20456;-74
2021/12/29 00:14:52;;;;;;;28.40;16.55;;;;;;;;;;5103882;28;20156;-74
2021/12/29 00:17:19;;;;;;;21.33;14.27;;;;;;;;;;5099927;28;20063;-74
2021/12/29 00:19:46;;;;;;;26.30;18.05;;;;;;;;;;5080901;28;20367;-73
2021/12/29 00:22:12;;;;;;;26.98;17.63;;;;;;;;;;5104289;28;20062;-73
2021/12/29 00:24:38;;;;;;;29.33;17.48;;;;;;;;;;5085076;28;20043;-73
2021/12/29 00:27:06;;;;;;;30.95;19.42;;;;;;;;;;5087943;28;20164;-74
2021/12/29 00:29:32;;;;;;;28.10;17.58;;;;;;;;;;5080758;28;20036;-79
2021/12/29 00:31:58;;;;;;;25.48;16.42;;;;;;;;;;5101601;28;20039;-79
2021/12/29 00:34:24;;;;;;;28.92;16.83;;;;;;;;;;5080365;28;20198;-79
2021/12/29 00:36:50;;;;;;;30.23;18.48;;;;;;;;;;5103975;28;20648;-79
2021/12/29 00:39:17;;;;;;;27.70;16.63;;;;;;;;;;5088919;28;20398;-79
2021/12/29 00:41:43;;;;;;;30.80;15.73;;;;;;;;;;5082611;28;20057;-79
2021/12/29 00:44:09;;;;;;;33.33;18.77;;;;;;;;;;5108345;27;20146;-79
2021/12/29 00:46:39;;;;;;;38.13;17.10;;;;;;;;;;5105106;27;20100;-79
2021/12/29 00:49:05;;;;;;;36.13;19.10;;;;;;;;;;5081979;28;20540;-79
2021/12/29 00:51:32;;;;;;;31.92;16.67;;;;;;;;;;5106421;27;20489;-79
2021/12/29 00:53:58;;;;;;;27.88;15.55;;;;;;;;;;5083517;28;20214;-79
2021/12/29 00:56:24;;;;;;;31.27;16.35;;;;;;;;;;5108729;27;20051;-79
2021/12/29 00:58:50;;;;;;;31.08;14.90;;;;;;;;;;5088897;27;20457;-79
2021/12/29 01:01:18;;;;;;;35.53;16.33;;;;;;;;;;5103340;28;20047;-79
2021/12/29 01:03:44;;;;;;;26.52;15.13;;;;;;;;;;5103533;27;20472;-79
2021/12/29 01:06:11;;;;;;;36.20;17.65;;;;;;;;;;5105093;27;20096;-79
2021/12/29 01:08:37;;;;;;;32.88;15.75;;;;;;;;;;5104087;27;20070;-79
2021/12/29 01:11:05;;;;;;;25.88;15.65;;;;;;;;;;5120376;27;20445;-79
2021/12/29 01:13:33;;;;;;;35.30;17.38;;;;;;;;;;5090545;27;20031;-79
2021/12/29 01:18:33;;;;;;;40.35;19.38;;;;;;;;;;5111118;27;20135;-73
2021/12/29 01:20:59;;;;;;;40.13;19.90;;;;;;;;;;5102362;27;20448;-73
2021/12/29 01:23:25;;;;;;;35.20;18.13;;;;;;;;;;5112735;27;20100;-73
2021/12/29 01:25:52;;;;;;;46.08;19.10;;;;;;;;;;5105336;27;20096;-73
2021/12/29 01:28:18;;;;;;;41.40;17.60;;;;;;;;;;5106478;27;20451;-74
2021/12/29 01:30:44;;;;;;;49.97;21.17;;;;;;;;;;5086071;27;20061;-73
2021/12/29 01:33:11;;;;;;;36.92;16.13;;;;;;;;;;5110125;27;20145;-73
2021/12/29 01:35:38;;;;;;;39.00;18.70;;;;;;;;;;5091472;27;20036;-73
2021/12/29 01:38:05;;;;;;;43.97;20.55;;;;;;;;;;5109850;27;20511;-73
2021/12/29 01:40:32;;;;;;;37.65;16.55;;;;;;;;;;5105619;27;20034;-73
2021/12/29 01:42:58;;;;;;;32.10;17.10;;;;;;;;;;5109696;27;20070;-73
2021/12/29 01:45:25;;;;;;;40.30;18.20;;;;;;;;;;5110024;27;20106;-73
2021/12/29 01:47:51;;;;;;;33.28;14.90;;;;;;;;;;5110739;27;20497;-74
2021/12/29 01:50:18;;;;;;;28.33;15.10;;;;;;;;;;5101662;27;20028;-74
2021/12/29 01:52:51;;;;;;;23.42;14.10;;;;;;;;;;5108429;27;20106;-74
2021/12/29 01:55:17;;;;;;;23.83;14.02;;;;;;;;;;5102249;27;20541;-74
2021/12/29 01:57:44;;;;;;;24.40;14.25;;;;;;;;;;5109993;27;20426;-73
2021/12/29 02:00:12;;;;;;;23.98;12.88;;;;;;;;;;5108885;27;20465;-74
2021/12/29 02:02:39;;;;;;;22.63;13.88;;;;;;;;;;5104620;27;20054;-74
2021/12/29 02:05:06;;;;;;;32.05;13.52;;;;;;;;;;5093071;27;20042;-74
2021/12/29 02:07:32;;;;;;;33.40;14.65;;;;;;;;;;5092609;27;20043;-74
2021/12/29 02:09:59;;;;;;;24.23;13.55;;;;;;;;;;5089850;27;20043;-74
2021/12/29 02:12:25;;;;;;;21.92;14.05;;;;;;;;;;5106404;27;20048;-74
2021/12/29 02:14:52;;;;;;;24.90;14.25;;;;;;;;;;5106948;27;20054;-74
2021/12/29 02:17:18;;;;;;;23.67;13.32;;;;;;;;;;5106796;27;20115;-74
2021/12/29 02:19:46;;;;;;;22.55;13.32;;;;;;;;;;5103872;27;20035;-74
2021/12/29 02:25:08;;;;;;;27.90;13.65;;;;;;;;;;5108042;27;20139;-74
2021/12/29 02:27:38;;;;;;;22.48;14.52;;;;;;;;;;5072869;27;20039;-74
2021/12/29 02:30:05;;;;;;;19.10;13.38;;;;;;;;;;5111439;27;20038;-74
2021/12/29 02:32:31;;;;;;;21.85;13.48;;;;;;;;;;5091452;27;20359;-74
2021/12/29 02:34:57;;;;;;;18.73;13.00;;;;;;;;;;5104692;27;20039;-74
2021/12/29 02:37:23;;;;;;;23.60;14.65;;;;;;;;;;5111645;27;20047;-74
2021/12/29 02:39:51;;;;;;;24.08;15.13;;;;;;;;;;5094339;27;20122;-79
2021/12/29 02:42:19;;;;;;;20.13;14.20;;;;;;;;;;5084011;27;20039;-79
2021/12/29 02:44:46;;;;;;;23.58;13.65;;;;;;;;;;5090490;27;20125;-79
2021/12/29 02:47:13;;;;;;;24.67;15.32;;;;;;;;;;5106036;27;20116;-79
2021/12/29 02:49:40;;;;;;;21.95;15.10;;;;;;;;;;5087661;27;20050;-80
2021/12/29 02:52:08;;;;;;;26.27;15.13;;;;;;;;;;5105217;27;20051;-79
2021/12/29 02:54:34;;;;;;;21.40;15.85;;;;;;;;;;5092637;27;20114;-79
2021/12/29 02:57:01;;;;;;;22.08;13.60;;;;;;;;;;5098276;27;20050;-79
2021/12/29 02:59:27;;;;;;;24.92;14.85;;;;;;;;;;5091870;27;20058;-77
2021/12/29 03:01:53;;;;;;;24.58;16.27;;;;;;;;;;5129827;27;20043;-78
2021/12/29 03:04:19;;;;;;;20.05;15.35;;;;;;;;;;5107863;27;20278;-79
2021/12/29 03:06:45;;;;;;;20.75;13.48;;;;;;;;;;5105926;27;20088;-79
2021/12/29 03:09:13;;;;;;;19.45;14.35;;;;;;;;;;5088395;28;20367;-79
2021/12/29 03:11:42;;;;;;;18.85;12.65;;;;;;;;;;5083371;27;20048;-79
2021/12/29 03:14:09;;;;;;;17.48;13.05;;;;;;;;;;5105811;28;20516;-79
2021/12/29 03:16:36;;;;;;;23.27;13.40;;;;;;;;;;5113462;27;20501;-79
2021/12/29 03:19:04;;;;;;;16.30;11.65;;;;;;;;;;5111387;27;20051;-80
2021/12/29 03:21:31;;;;;;;20.65;14.13;;;;;;;;;;5089739;28;20153;-79
2021/12/29 03:23:57;;;;;;;18.13;12.02;;;;;;;;;;5110400;27;20047;-80
2021/12/29 03:26:23;;;;;;;19.67;13.18;;;;;;;;;;5100433;28;20043;-79
2021/12/29 03:28:49;;;;;;;18.88;12.68;;;;;;;;;;5068212;28;20035;-80
2021/12/29 03:31:17;;;;;;;18.77;12.35;;;;;;;;;;5071111;27;20113;-80
2021/12/29 03:33:44;;;;;;;17.98;13.15;;;;;;;;;;5089907;28;20070;-79
2021/12/29 03:36:12;;;;;;;19.70;14.25;;;;;;;;;;5091808;28;20035;-80
2021/12/29 03:38:39;;;;;;;17.75;13.32;;;;;;;;;;5093942;28;20437;-80
2021/12/29 03:41:09;;;;;;;21.02;16.52;;;;;;;;;;5109320;27;20043;-79
2021/12/29 03:43:36;;;;;;;22.83;14.90;;;;;;;;;;5107258;27;20348;-80
2021/12/29 03:46:04;;;;;;;25.75;15.52;;;;;;;;;;5089828;28;20089;-80
2021/12/29 03:48:31;;;;;;;23.38;15.20;;;;;;;;;;5091443;27;20089;-80
2021/12/29 03:50:58;;;;;;;21.98;14.05;;;;;;;;;;5104638;28;20035;-80
2021/12/29 03:53:25;;;;;;;22.88;14.75;;;;;;;;;;5094277;28;20504;-74
2021/12/29 03:55:51;;;;;;;22.08;14.00;;;;;;;;;;5083312;27;20032;-74
2021/12/29 03:58:22;;;;;;;20.25;13.02;;;;;;;;;;5106225;27;20490;-74
2021/12/29 04:00:50;;;;;;;19.70;11.45;;;;;;;;;;5108201;28;20408;-74
2021/12/29 04:03:16;;;;;;;25.33;14.82;;;;;;;;;;5104005;28;20043;-74
2021/12/29 04:05:42;;;;;;;28.33;14.25;;;;;;;;;;5108763;27;20045;-80
2021/12/29 04:08:09;;;;;;;20.83;13.45;;;;;;;;;;5109744;28;20035;-80
2021/12/29 04:10:35;;;;;;;22.33;12.63;;;;;;;;;;5106149;28;20035;-80
2021/12/29 04:13:02;;;;;;;24.35;13.88;;;;;;;;;;5106926;27;20146;-80
2021/12/29 04:15:29;;;;;;;20.92;12.75;;;;;;;;;;5094720;27;20039;-80
2021/12/29 04:17:58;;;;;;;19.55;11.80;;;;;;;;;;5077966;28;20039;-80
2021/12/29 04:23:14;;;;;;;18.95;12.13;;;;;;;;;;5111326;27;20301;-81
2021/12/29 04:25:41;;;;;;;17.98;11.70;;;;;;;;;;5108169;27;20080;-80
2021/12/29 04:28:13;;;;;;;18.65;11.90;;;;;;;;;;5105237;27;20042;-80
2021/12/29 04:30:39;;;;;;;20.83;10.90;;;;;;;;;;5110825;27;20459;-80
2021/12/29 04:33:05;;;;;;;19.27;12.70;;;;;;;;;;5094791;27;20174;-80
2021/12/29 04:35:32;;;;;;;17.88;11.73;;;;;;;;;;5077588;27;20071;-74
2021/12/29 04:37:58;;;;;;;15.45;10.95;;;;;;;;;;5110133;27;20042;-74
2021/12/29 04:40:24;;;;;;;15.40;11.40;;;;;;;;;;5107740;27;20039;-74
2021/12/29 04:42:50;;;;;;;15.85;12.23;;;;;;;;;;5103881;27;20035;-74
2021/12/29 04:45:16;;;;;;;21.13;11.77;;;;;;;;;;5109703;27;20070;-74
2021/12/29 04:47:45;;;;;;;21.63;13.38;;;;;;;;;;5107989;27;20116;-74
2021/12/29 04:50:25;;;;;;;21.52;13.15;;;;;;;;;;5111662;27;20032;-74
2021/12/29 04:52:56;;;;;;;18.58;11.93;;;;;;;;;;5110615;27;20035;-74
2021/12/29 04:55:22;;;;;;;20.63;12.13;;;;;;;;;;5093245;27;20055;-74
2021/12/29 04:57:48;;;;;;;19.75;11.63;;;;;;;;;;5101996;27;20118;-74
2021/12/29 05:00:15;;;;;;;21.13;12.30;;;;;;;;;;5095664;27;20046;-74
2021/12/29 05:02:42;;;;;;;15.88;10.45;;;;;;;;;;5086999;27;20119;-74
2021/12/29 05:05:20;;;;;;;17.63;11.00;;;;;;;;;;5107009;27;20468;-74
2021/12/29 05:10:32;;;;;;;19.15;12.57;;;;;;;;;;5108192;27;20054;-74
2021/12/29 05:12:58;;;;;;;22.42;11.57;;;;;;;;;;5116754;27;20055;-80
2021/12/29 05:15:25;;;;;;;17.15;9.48;;;;;;;;;;5106299;27;20382;-74
2021/12/29 05:17:51;;;;;;;23.60;12.02;;;;;;;;;;5094285;27;20040;-74
2021/12/29 05:20:17;;;;;;;27.60;13.30;;;;;;;;;;5110311;27;20506;-74
2021/12/29 05:22:43;;;;;;;28.27;13.00;;;;;;;;;;5089617;27;20045;-74
2021/12/29 05:25:10;;;;;;;17.38;12.10;;;;;;;;;;5104982;27;20034;-74
2021/12/29 05:27:36;;;;;;;24.48;13.38;;;;;;;;;;5108518;27;20070;-74
2021/12/29 05:30:04;;;;;;;28.67;14.07;;;;;;;;;;5108370;27;20062;-74
2021/12/29 05:32:32;;;;;;;22.58;13.27;;;;;;;;;;5098000;27;20402;-74
2021/12/29 05:34:58;;;;;;;22.23;13.07;;;;;;;;;;5096532;27;20101;-74
2021/12/29 05:37:25;;;;;;;23.73;11.85;;;;;;;;;;5090958;27;20069;-74
2021/12/29 05:39:51;;;;;;;30.55;13.35;;;;;;;;;;5097049;27;20051;-74
2021/12/29 05:42:17;;;;;;;24.02;14.45;;;;;;;;;;5074353;27;20142;-74
2021/12/29 05:44:43;;;;;;;23.73;15.13;;;;;;;;;;5109758;27;20075;-80
2021/12/29 05:47:09;;;;;;;28.50;14.25;;;;;;;;;;5114400;27;20172;-74
2021/12/29 05:49:35;;;;;;;26.73;14.35;;;;;;;;;;5088360;27;20039;-74
2021/12/29 05:52:01;;;;;;;26.75;14.25;;;;;;;;;;5093514;27;20333;-74
2021/12/29 05:54:27;;;;;;;27.85;15.07;;;;;;;;;;5113299;27;20031;-74
2021/12/29 05:56:54;;;;;;;31.30;15.23;;;;;;;;;;5092846;27;20037;-74
2021/12/29 05:59:20;;;;;;;21.50;13.15;;;;;;;;;;5107466;27;20035;-73
2021/12/29 06:01:46;;;;;;;24.17;15.05;;;;;;;;;;5094399;27;20047;-74
2021/12/29 06:04:12;;;;;;;30.65;13.98;;;;;;;;;;5110342;27;20090;-73
2021/12/29 06:06:39;;;;;;;29.55;14.35;;;;;;;;;;5087793;27;20039;-73
2021/12/29 06:09:05;;;;;;;29.23;14.95;;;;;;;;;;5103897;27;20050;-73
2021/12/29 06:11:31;;;;;;;23.42;13.88;;;;;;;;;;5105754;27;20047;-73
2021/12/29 06:13:57;;;;;;;33.83;14.38;;;;;;;;;;5087314;27;20059;-74
2021/12/29 06:16:23;;;;;;;22.55;13.30;;;;;;;;;;5105141;27;20044;-79
2021/12/29 06:18:49;;;;;;;24.67;14.05;;;;;;;;;;5105236;27;20035;-79
2021/12/29 06:21:18;;;;;;;27.17;17.20;;;;;;;;;;5098588;27;20339;-80
2021/12/29 06:23:45;;;;;;;25.08;14.30;;;;;;;;;;5086631;27;20044;-80
2021/12/29 06:26:11;;;;;;;26.10;13.30;;;;;;;;;;5108030;27;20101;-79
2021/12/29 06:28:38;;;;;;;27.83;14.13;;;;;;;;;;5103673;27;20031;-79
2021/12/29 06:31:05;;;;;;;29.15;14.73;;;;;;;;;;5104873;27;20050;-80
2021/12/29 06:33:32;;;;;;;22.58;12.77;;;;;;;;;;5099004;27;20394;-80
2021/12/29 06:35:58;;;;;;;31.15;13.75;;;;;;;;;;5101756;27;20701;-80
2021/12/29 06:38:24;;;;;;;29.73;13.60;;;;;;;;;;5091079;27;20212;-79
2021/12/29 06:40:50;;;;;;;30.45;14.05;;;;;;;;;;5093964;27;20490;-79
2021/12/29 06:43:16;;;;;;;28.58;13.07;;;;;;;;;;5101363;27;20490;-79
2021/12/29 06:45:43;;;;;;;33.33;15.00;;;;;;;;;;5104943;27;20038;-79
2021/12/29 06:48:09;;;;;;;31.38;14.48;;;;;;;;;;5087369;27;20034;-79
2021/12/29 06:50:35;;;;;;;30.30;13.15;;;;;;;;;;5077124;27;20130;-73
2021/12/29 06:53:02;;;;;;;25.77;13.40;;;;;;;;;;5090997;27;20031;-73
2021/12/29 06:55:28;;;;;;;26.67;15.85;;;;;;;;;;5089839;27;20047;-73
2021/12/29 06:57:54;;;;;;;29.30;15.52;;;;;;;;;;5082642;28;20088;-73
2021/12/29 07:00:20;;;;;;;27.98;15.15;;;;;;;;;;5100473;27;20426;-73
2021/12/29 07:02:46;;;;;;;25.88;15.05;;;;;;;;;;5091280;27;20043;-75
2021/12/29 07:05:12;;;;;;;27.33;14.55;;;;;;;;;;5104055;27;20072;-73
2021/12/29 07:07:42;;;;;;;25.85;13.15;;;;;;;;;;5068645;27;20221;-73
2021/12/29 07:10:08;;;;;;;22.38;13.35;;;;;;;;;;5089448;27;20062;-73
2021/12/29 07:12:34;;;;;;;20.38;12.98;;;;;;;;;;5083191;28;20081;-73
2021/12/29 07:15:01;;;;;;;27.20;14.20;;;;;;;;;;5099264;27;20131;-73
2021/12/29 07:17:29;;;;;;;33.30;15.95;;;;;;;;;;5082710;27;20414;-73
2021/12/29 07:19:55;;;;;;;31.40;15.60;;;;;;;;;;5086304;27;20608;-78
2021/12/29 07:22:23;;;;;;;27.67;14.55;;;;;;;;;;5081221;27;20142;-78
2021/12/29 07:24:49;;;;;;;30.33;14.68;;;;;;;;;;5102741;28;20046;-80
2021/12/29 07:27:15;;;;;;;26.85;13.55;;;;;;;;;;5083220;28;20132;-79
2021/12/29 07:29:42;;;;;;;31.00;14.65;;;;;;;;;;5108575;27;20458;-79
2021/12/29 07:32:08;;;;;;;35.90;14.40;;;;;;;;;;5105508;28;20439;-79
2021/12/29 07:34:34;;;;;;;43.63;19.25;;;;;;;;;;5097161;28;20393;-80
2021/12/29 07:37:01;;;;;;;48.60;14.95;;;;;;;;;;5100908;27;20044;-79
2021/12/29 07:39:27;;;;;;;43.75;15.23;;;;;;;;;;5101529;28;20074;-74
2021/12/29 07:41:54;;;;;;;41.70;16.63;;;;;;;;;;5102222;28;20662;-74
2021/12/29 07:44:20;;;;;;;24.48;12.93;;;;;;;;;;5084697;28;20262;-74
2021/12/29 07:46:51;;;;;;;23.02;11.88;;;;;;;;;;5104048;27;20430;-73
2021/12/29 07:49:17;;;;;;;22.88;12.00;;;;;;;;;;5100167;27;20092;-74
2021/12/29 07:51:43;;;;;;;37.65;14.38;;;;;;;;;;5087488;27;20058;-74
2021/12/29 07:54:10;;;;;;;90.63;18.17;;;;;;;;;;5089549;27;20031;-74
2021/12/29 07:56:36;;;;;;;25.95;12.02;;;;;;;;;;5112088;27;20032;-82
2021/12/29 07:59:02;;;;;;;28.70;12.82;;;;;;;;;;5071905;27;20073;-74
2021/12/29 08:01:28;;;;;;;22.65;11.02;;;;;;;;;;5103105;27;20484;-79
2021/12/29 08:03:55;;;;;;;22.73;10.98;;;;;;;;;;5083513;27;20039;-79
2021/12/29 08:06:21;;;;;;;39.45;11.40;;;;;;;;;;5106043;27;20498;-79
2021/12/29 08:08:47;;;;;;;31.17;13.15;;;;;;;;;;5101570;27;20043;-79
2021/12/29 08:11:13;;;;;;;20.00;10.45;;;;;;;;;;5108290;27;20047;-80
2021/12/29 08:13:39;;;;;;;40.00;10.50;;;;;;;;;;5111468;27;20055;-79
2021/12/29 08:16:06;;;;;;;30.48;11.98;;;;;;;;;;5084486;27;20139;-79
2021/12/29 08:18:32;;;;;;;22.25;11.13;;;;;;;;;;5108139;27;20043;-79
2021/12/29 08:20:58;;;;;;;25.73;10.98;;;;;;;;;;5091830;27;20044;-80
2021/12/29 08:23:24;;;;;;;83.15;14.13;;;;;;;;;;5109686;27;20486;-79
2021/12/29 08:25:50;;;;;;;31.02;11.77;;;;;;;;;;5109072;27;20043;-79
2021/12/29 08:28:17;;;;;;;59.85;13.13;;;;;;;;;;5107944;27;20036;-79
2021/12/29 08:30:44;;;;;;;22.67;9.55;;;;;;;;;;5110722;27;20574;-79
2021/12/29 08:33:11;;;;;;;16.25;9.18;;;;;;;;;;5092093;27;20089;-79
2021/12/29 08:35:37;;;;;;;19.85;9.60;;;;;;;;;;5108670;27;20483;-78
2021/12/29 08:38:04;;;;;;;18.50;10.77;;;;;;;;;;5103459;27;20456;-74
2021/12/29 08:40:30;;;;;;;17.98;8.32;;;;;;;;;;5102526;27;20050;-74
2021/12/29 08:42:59;;;;;;;15.60;9.02;;;;;;;;;;5106137;27;20032;-84
2021/12/29 08:45:26;;;;;;;16.02;9.25;;;;;;;;;;5086571;28;20126;-79
2021/12/29 08:47:55;;;;;;;18.40;10.07;;;;;;;;;;5107825;27;20047;-82
2021/12/29 08:50:22;;;;;;;22.33;9.30;;;;;;;;;;5107750;27;20118;-80
2021/12/29 08:52:49;;;;;;;13.98;8.85;;;;;;;;;;5094346;28;20047;-80
2021/12/29 08:55:15;;;;;;;19.40;9.07;;;;;;;;;;5112687;27;20050;-82
2021/12/29 08:57:42;;;;;;;15.25;8.55;;;;;;;;;;5111579;27;20039;-82
2021/12/29 09:00:11;;;;;;;16.52;8.13;;;;;;;;;;5106311;27;20133;-80
2021/12/29 09:02:39;;;;;;;15.32;7.80;;;;;;;;;;5104492;27;20043;-80
2021/12/29 09:05:06;;;;;;;13.57;7.97;;;;;;;;;;5094767;27;20051;-80
2021/12/29 09:07:32;;;;;;;16.45;8.55;;;;;;;;;;5091119;27;20052;-80
2021/12/29 09:10:00;;;;;;;11.88;6.57;;;;;;;;;;5093642;27;20506;-79
2021/12/29 09:12:26;;;;;;;14.18;6.90;;;;;;;;;;5104550;27;20047;-80
2021/12/29 09:14:53;;;;;;;13.48;8.07;;;;;;;;;;5084678;28;20048;-80
2021/12/29 09:17:19;;;;;;;16.05;8.65;;;;;;;;;;5098816;27;20065;-79
2021/12/29 09:19:45;;;;;;;16.77;8.48;;;;;;;;;;5081435;28;20118;-79
2021/12/29 09:22:12;;;;;;;17.73;7.65;;;;;;;;;;5097755;27;20159;-80
2021/12/29 09:24:39;;;;;;;18.15;9.43;;;;;;;;;;5095735;27;20134;-80
2021/12/29 09:27:06;;;;;;;18.92;8.90;;;;;;;;;;5104277;27;20122;-80
2021/12/29 09:29:34;;;;;;;12.70;7.53;;;;;;;;;;5094394;28;20089;-80
2021/12/29 09:32:00;;;;;;;18.27;8.05;;;;;;;;;;5085195;28;20756;-79
2021/12/29 09:34:26;;;;;;;19.55;8.10;;;;;;;;;;5084864;28;20036;-79
2021/12/29 09:36:52;;;;;;;19.73;7.50;;;;;;;;;;5095041;27;20044;-79
2021/12/29 09:39:18;;;;;;;14.75;7.68;;;;;;;;;;5101664;27;20055;-79
2021/12/29 09:41:44;;;;;;;20.58;7.53;;;;;;;;;;5096641;27;20773;-79
2021/12/29 09:44:11;;;;;;;14.10;6.97;;;;;;;;;;5081505;28;20051;-79
2021/12/29 09:46:38;;;;;;;23.83;8.68;;;;;;;;;;5099928;27;20396;-79
2021/12/29 09:49:05;;;;;;;16.85;8.82;;;;;;;;;;5099301;27;20145;-79
2021/12/29 09:51:31;;;;;;;15.05;7.00;;;;;;;;;;5085571;28;20785;-79
2021/12/29 09:53:57;;;;;;;15.25;6.90;;;;;;;;;;5061891;28;20459;-79
2021/12/29 09:56:26;;;;;;;14.48;8.43;;;;;;;;;;5081069;28;20051;-79
2021/12/29 09:58:52;;;;;;;21.75;7.68;;;;;;;;;;5096496;27;20047;-80
2021/12/29 10:01:19;;;;;;;21.70;8.80;;;;;;;;;;5084179;28;20175;-78
2021/12/29 10:03:45;;;;;;;17.38;8.25;;;;;;;;;;5104437;27;20043;-80
2021/12/29 10:06:12;;;;;;;13.73;6.78;;;;;;;;;;5085941;28;20039;-80
2021/12/29 10:08:56;;;;;;;12.73;7.20;;;;;;;;;;5098890;27;20086;-81
2021/12/29 10:11:27;;;;;;;15.88;7.40;;;;;;;;;;5103819;27;20065;-74
2021/12/29 10:13:53;;;;;;;13.10;6.32;;;;;;;;;;5083931;28;20470;-74
2021/12/29 10:16:24;;;;;;;14.90;6.35;;;;;;;;;;5095327;28;20062;-74
2021/12/29 10:18:54;;;;;;;18.85;7.03;;;;;;;;;;5103023;27;20047;-74
2021/12/29 10:21:26;;;;;;;15.25;6.47;;;;;;;;;;5098168;27;20066;-75
2021/12/29 10:23:53;;;;;;;22.25;7.40;;;;;;;;;;5100180;27;20039;-73
2021/12/29 10:26:22;;;;;;;16.95;7.15;;;;;;;;;;5082893;28;20407;-73
2021/12/29 10:28:53;;;;;;;15.50;6.53;;;;;;;;;;5097747;27;20039;-73
2021/12/29 10:31:27;;;;;;;14.80;6.55;;;;;;;;;;5081014;28;20443;-73
2021/12/29 10:33:55;;;;;;;12.98;6.40;;;;;;;;;;5083866;28;20044;-74
2021/12/29 10:36:21;;;;;;;17.13;6.55;;;;;;;;;;5074527;27;20040;-73
2021/12/29 10:39:10;;;;;;;14.32;7.00;;;;;;;;;;5097747;27;20528;-79
2021/12/29 10:41:51;;;;;;;14.98;6.47;;;;;;;;;;5089941;27;20048;-79
2021/12/29 10:44:24;;;;;;;19.00;7.30;;;;;;;;;;5094551;27;20486;-79
2021/12/29 10:46:52;;;;;;;14.43;6.57;;;;;;;;;;5096926;28;20032;-79
2021/12/29 10:49:18;;;;;;;14.57;6.45;;;;;;;;;;5082791;28;20512;-80
2021/12/29 10:51:47;;;;;;;17.08;6.53;;;;;;;;;;5098636;27;20051;-74
2021/12/29 10:54:15;;;;;;;11.40;6.63;;;;;;;;;;5101064;28;20122;-81
2021/12/29 10:56:43;;;;;;;12.18;6.22;;;;;;;;;;5099488;27;20130;-82
2021/12/29 10:59:30;;;;;;;12.32;6.78;;;;;;;;;;5103678;27;20074;-75
2021/12/29 11:01:56;;;;;;;22.02;8.38;;;;;;;;;;5096817;27;20170;-75
2021/12/29 11:04:23;;;;;;;16.48;6.82;;;;;;;;;;5086685;28;20513;-74
2021/12/29 11:06:50;;;;;;;17.27;6.65;;;;;;;;;;5085162;28;20070;-73
2021/12/29 11:09:23;;;;;;;20.17;7.28;;;;;;;;;;5096510;28;20238;-82
2021/12/29 11:11:49;;;;;;;15.55;6.43;;;;;;;;;;5070382;27;20162;-81
2021/12/29 11:14:17;;;;;;;16.52;6.40;;;;;;;;;;5107890;27;20172;-80
2021/12/29 11:16:44;;;;;;;19.65;7.00;;;;;;;;;;5108939;27;20050;-73
2021/12/29 11:19:12;;;;;;;17.90;6.03;;;;;;;;;;5086175;28;20049;-74
2021/12/29 11:21:40;;;;;;;19.17;7.05;;;;;;;;;;5102236;27;20038;-74
2021/12/29 11:24:17;;;;;;;17.77;6.47;;;;;;;;;;5109906;27;20089;-74
2021/12/29 11:26:44;;;;;;;17.70;6.70;;;;;;;;;;5111141;27;20054;-75
2021/12/29 11:29:12;;;;;;;19.80;6.30;;;;;;;;;;5106606;27;20513;-73
2021/12/29 11:31:43;;;;;;;26.27;8.13;;;;;;;;;;5090491;28;20114;-73
2021/12/29 11:34:18;;;;;;;18.27;5.60;;;;;;;;;;5092515;28;20041;-72
2021/12/29 11:36:44;;;;;;;13.95;6.72;;;;;;;;;;5103561;28;20044;-73
2021/12/29 11:39:11;;;;;;;17.45;5.97;;;;;;;;;;5109779;28;20039;-73
2021/12/29 11:41:37;;;;;;;14.88;5.30;;;;;;;;;;5105696;28;20054;-73
2021/12/29 11:44:03;;;;;;;16.50;5.82;;;;;;;;;;5085690;28;20042;-75
2021/12/29 11:46:29;;;;;;;18.55;5.50;;;;;;;;;;5108331;27;20131;-78
2021/12/29 11:48:55;;;;;;;16.73;5.55;;;;;;;;;;5089329;28;20035;-78
2021/12/29 11:51:37;;;;;;;14.75;5.43;;;;;;;;;;5101289;28;20039;-78
2021/12/29 11:54:06;;;;;;;17.75;6.25;;;;;;;;;;5084648;27;20030;-79
2021/12/29 11:56:39;;;;;;;12.30;5.85;;;;;;;;;;5102223;28;20059;-81
2021/12/29 11:59:05;;;;;;;10.52;5.15;;;;;;;;;;5090847;28;20043;-81
2021/12/29 12:01:31;;;;;;;17.23;5.93;;;;;;;;;;5120381;27;20076;-79
2021/12/29 12:04:00;;;;;;;19.33;6.80;;;;;;;;;;5106914;28;20075;-73
2021/12/29 12:06:31;;;;;;;13.20;5.43;;;;;;;;;;5089985;28;20054;-74
2021/12/29 12:09:25;;;;;;;12.65;5.10;;;;;;;;;;5100476;27;20043;-73
2021/12/29 12:11:54;;;;;;;15.15;4.97;;;;;;;;;;5093884;28;20047;-73
2021/12/29 12:14:34;;;;;;;9.45;5.25;;;;;;;;;;5083520;28;20169;-75
2021/12/29 12:17:00;;;;;;;15.05;5.13;;;;;;;;;;5074254;27;20054;-73
2021/12/29 12:19:28;;;;;;;12.32;5.72;;;;;;;;;;5095805;28;20383;-82
2021/12/29 12:22:04;;;;;;;13.45;5.32;;;;;;;;;;5079554;27;20093;-73
2021/12/29 12:24:30;;;;;;;10.80;5.38;;;;;;;;;;5098894;28;20050;-73
2021/12/29 12:26:58;;;;;;;15.85;6.53;;;;;;;;;;5099151;28;20043;-73
2021/12/29 12:29:25;;;;;;;21.35;10.82;;;;;;;;;;5100553;27;20031;-73
2021/12/29 12:32:12;;;;;;;17.58;9.00;;;;;;;;;;5094109;28;20031;-73
2021/12/29 12:34:56;;;;;;;14.05;6.78;;;;;;;;;;5081631;27;20031;-73
2021/12/29 12:37:24;;;;;;;9.65;5.80;;;;;;;;;;5105131;27;20125;-73
2021/12/29 12:39:54;;;;;;;17.70;6.57;;;;;;;;;;5092199;27;20058;-74
2021/12/29 12:42:21;;;;;;;12.77;6.22;;;;;;;;;;5074600;27;20090;-73
2021/12/29 12:44:47;;;;;;;10.27;5.35;;;;;;;;;;5079382;27;20073;-73
2021/12/29 12:47:15;;;;;;;11.10;6.72;;;;;;;;;;5093313;27;20122;-73
2021/12/29 12:49:43;;;;;;;14.10;6.80;;;;;;;;;;5090121;28;20391;-74
2021/12/29 12:52:11;;;;;;;12.30;6.88;;;;;;;;;;5102744;27;20035;-74
2021/12/29 12:54:38;;;;;;;14.25;7.25;;;;;;;;;;5105730;27;20042;-79
2021/12/29 12:57:05;;;;;;;13.07;6.00;;;;;;;;;;5103403;27;20221;-79
2021/12/29 12:59:38;;;;;;;11.30;6.15;;;;;;;;;;5104652;27;20031;-80
2021/12/29 13:02:15;;;;;;;10.93;6.07;;;;;;;;;;5077680;27;20038;-79
2021/12/29 13:05:05;;;;;;;10.57;5.03;;;;;;;;;;5108365;27;20072;-80
2021/12/29 13:07:31;;;;;;;12.48;6.32;;;;;;;;;;5098931;27;20047;-80
2021/12/29 13:09:57;;;;;;;13.80;6.53;;;;;;;;;;5105794;27;20035;-74
2021/12/29 13:12:31;;;;;;;11.18;6.28;;;;;;;;;;5097380;28;20086;-74
2021/12/29 13:14:58;;;;;;;9.75;6.15;;;;;;;;;;5090259;27;20069;-75
2021/12/29 13:17:25;;;;;;;14.48;6.53;;;;;;;;;;5110450;27;20116;-74
2021/12/29 13:19:51;;;;;;;9.73;6.45;;;;;;;;;;5106432;27;20042;-74
2021/12/29 13:22:27;;;;;;;16.52;7.28;;;;;;;;;;5102271;27;20408;-74
2021/12/29 13:24:53;;;;;;;17.23;8.40;;;;;;;;;;5101132;27;20042;-74
2021/12/29 13:27:21;;;;;;;14.25;7.78;;;;;;;;;;5085771;27;20043;-74
2021/12/29 13:30:00;;;;;;;17.05;6.85;;;;;;;;;;5075070;27;20114;-76
2021/12/29 13:32:29;;;;;;;13.18;6.10;;;;;;;;;;5090254;27;20069;-76
2021/12/29 13:35:13;;;;;;;12.80;7.90;;;;;;;;;;5108094;27;20112;-75
2021/12/29 13:37:41;;;;;;;26.02;11.70;;;;;;;;;;5105824;27;20053;-81
2021/12/29 13:40:09;;;;;;;18.35;9.85;;;;;;;;;;5088445;27;20075;-73
2021/12/29 13:42:40;;;;;;;17.75;10.45;;;;;;;;;;5106707;27;20508;-74
2021/12/29 13:45:06;;;;;;;18.88;9.68;;;;;;;;;;5089674;27;20047;-80
2021/12/29 13:47:33;;;;;;;20.15;11.20;;;;;;;;;;5109051;27;20043;-81
2021/12/29 13:50:10;;;;;;;15.88;8.35;;;;;;;;;;5104601;27;20066;-80
2021/12/29 13:52:37;;;;;;;13.05;6.80;;;;;;;;;;5100246;27;20078;-80
2021/12/29 13:55:03;;;;;;;17.55;6.57;;;;;;;;;;5093466;27;20367;-80
2021/12/29 13:57:29;;;;;;;17.15;8.40;;;;;;;;;;5099570;27;20043;-80
2021/12/29 13:59:57;;;;;;;13.68;7.30;;;;;;;;;;5103014;27;20042;-80
2021/12/29 14:02:23;;;;;;;12.02;6.80;;;;;;;;;;5085557;27;20331;-81
2021/12/29 14:04:52;;;;;;;16.55;7.50;;;;;;;;;;5106823;27;20046;-81
2021/12/29 14:07:20;;;;;;;13.55;7.32;;;;;;;;;;5103096;27;20500;-80
2021/12/29 14:09:47;;;;;;;12.43;5.90;;;;;;;;;;5102153;27;20035;-79
2021/12/29 14:12:17;;;;;;;13.23;7.10;;;;;;;;;;5099675;27;20613;-80
2021/12/29 14:14:45;;;;;;;15.55;7.55;;;;;;;;;;5085390;27;20042;-80
2021/12/29 14:17:16;;;;;;;18.08;9.60;;;;;;;;;;5107407;27;20467;-80
2021/12/29 14:19:45;;;;;;;13.88;7.57;;;;;;;;;;5091130;27;20670;-80
2021/12/29 14:22:24;;;;;;;14.90;7.38;;;;;;;;;;5105938;27;20047;-80
2021/12/29 14:24:51;;;;;;;14.75;9.60;;;;;;;;;;5090045;27;20050;-81
2021/12/29 14:27:37;;;;;;;16.95;10.25;;;;;;;;;;5104157;27;20065;-81
2021/12/29 14:30:17;;;;;;;14.77;9.75;;;;;;;;;;5099766;27;20509;-80
2021/12/29 14:32:51;;;;;;;13.80;8.23;;;;;;;;;;5085556;27;20047;-80
2021/12/29 14:35:17;;;;;;;22.25;8.75;;;;;;;;;;5097323;27;20244;-80
2021/12/29 14:37:43;;;;;;;16.00;9.00;;;;;;;;;;5099382;27;20043;-80